sensor_id;sensor_type;location;lat;lon;timestamp;pressure;altitude;pressure_sealevel;temperature;humidity
67430;BME280;54298;52.076;5.264;2023-02-10T00:03:03;103470.0;;;0.16;85.34
67430;BME280;54298;52.076;5.264;2023-02-10T00:04:39;103466.00000000001;;;0.11;85.56
67430;BME280;54298;52.076;5.264;2023-02-10T00:06:17;103466.00000000001;;;0.02;85.58
67430;BME280;54298;52.076;5.264;2023-02-10T00:09:30;103473.0;;;-0.07;85.88
67430;BME280;54298;52.076;5.264;2023-02-10T00:11:08;103471.0;;;-0.16;86.32
67430;BME280;54298;52.076;5.264;2023-02-10T00:12:46;103477.0;;;-0.13;86.49
67430;BME280;54298;52.076;5.264;2023-02-10T00:16:00;103475.0;;;-0.19;86.68
67430;BME280;54298;52.076;5.264;2023-02-10T00:17:38;103483.0;;;-0.15;86.68
67430;BME280;54298;52.076;5.264;2023-02-10T00:19:14;103480.0;;;-0.14;86.68
67430;BME280;54298;52.076;5.264;2023-02-10T00:20:50;103479.0;;;-0.1;86.51
67430;BME280;54298;52.076;5.264;2023-02-10T00:24:03;103482.0;;;-0.15;86.78
67430;BME280;54298;52.076;5.264;2023-02-10T00:25:40;103480.0;;;-0.14;86.85
67430;BME280;54298;52.076;5.264;2023-02-10T00:27:23;103477.0;;;-0.14;86.78
67430;BME280;54298;52.076;5.264;2023-02-10T00:30:36;103475.0;;;-0.18;87.08
67430;BME280;54298;52.076;5.264;2023-02-10T00:32:13;103479.0;;;-0.21;87.19
67430;BME280;54298;52.076;5.264;2023-02-10T00:33:49;103478.0;;;-0.19;87.25
67430;BME280;54298;52.076;5.264;2023-02-10T00:35:25;103477.0;;;-0.13;87.01
67430;BME280;54298;52.076;5.264;2023-02-10T00:38:39;103478.0;;;-0.11;86.8
67430;BME280;54298;52.076;5.264;2023-02-10T00:40:16;103469.0;;;-0.06;86.55
67430;BME280;54298;52.076;5.264;2023-02-10T00:41:53;103473.0;;;-0.07;86.44
67430;BME280;54298;52.076;5.264;2023-02-10T00:45:07;103470.0;;;-0.03;86.04
67430;BME280;54298;52.076;5.264;2023-02-10T00:46:43;103471.0;;;0.06;85.79
67430;BME280;54298;52.076;5.264;2023-02-10T00:48:20;103471.0;;;0.04;85.82
67430;BME280;54298;52.076;5.264;2023-02-10T00:51:32;103478.0;;;-0.02;85.83
67430;BME280;54298;52.076;5.264;2023-02-10T00:53:09;103479.0;;;0.01;85.9
67430;BME280;54298;52.076;5.264;2023-02-10T00:54:45;103488.00000000001;;;0.06;85.53
67430;BME280;54298;52.076;5.264;2023-02-10T00:56:21;103480.0;;;0.1;85.3
67430;BME280;54298;52.076;5.264;2023-02-10T00:59:34;103486.99999999999;;;-0.14;85.78
67430;BME280;54298;52.076;5.264;2023-02-10T01:01:11;103478.0;;;-0.09;85.82
67430;BME280;54298;52.076;5.264;2023-02-10T01:02:47;103489.00000000001;;;-0.12;85.86
67430;BME280;54298;52.076;5.264;2023-02-10T01:05:59;103486.99999999999;;;-0.22;86.32
67430;BME280;54298;52.076;5.264;2023-02-10T01:07:36;103484.99999999999;;;-0.14;86.16
67430;BME280;54298;52.076;5.264;2023-02-10T01:09:12;103490.00000000001;;;-0.2;86.43
67430;BME280;54298;52.076;5.264;2023-02-10T01:12:24;103483.0;;;-0.21;86.44
67430;BME280;54298;52.076;5.264;2023-02-10T01:14:01;103480.0;;;-0.28;86.54
67430;BME280;54298;52.076;5.264;2023-02-10T01:15:41;103483.0;;;-0.22;86.52
67430;BME280;54298;52.076;5.264;2023-02-10T01:17:17;103484.99999999999;;;-0.02;86.29
67430;BME280;54298;52.076;5.264;2023-02-10T01:20:30;103486.99999999999;;;-0.03;86.21
67430;BME280;54298;52.076;5.264;2023-02-10T01:22:07;103493.0;;;-0.08;85.55
67430;BME280;54298;52.076;5.264;2023-02-10T01:23:43;103486.99999999999;;;0.08;85.01
67430;BME280;54298;52.076;5.264;2023-02-10T01:26:56;103495.0;;;0.08;84.51
67430;BME280;54298;52.076;5.264;2023-02-10T01:28:33;103493.0;;;0.13;84.08
67430;BME280;54298;52.076;5.264;2023-02-10T01:30:11;103505.0;;;0.08;83.91
67430;BME280;54298;52.076;5.264;2023-02-10T01:33:24;103505.0;;;0.0;84.17
67430;BME280;54298;52.076;5.264;2023-02-10T01:35:00;103508.0;;;0.08;83.99
67430;BME280;54298;52.076;5.264;2023-02-10T01:36:36;103508.99999999999;;;0.02;83.9
67430;BME280;54298;52.076;5.264;2023-02-10T01:38:12;103506.0;;;0.0;84.2
67430;BME280;54298;52.076;5.264;2023-02-10T01:41:25;103505.0;;;-0.13;84.55
67430;BME280;54298;52.076;5.264;2023-02-10T01:43:11;103503.0;;;-0.13;84.72
67430;BME280;54298;52.076;5.264;2023-02-10T01:45:27;103500.0;;;-0.28;84.86
67430;BME280;54298;52.076;5.264;2023-02-10T01:47:07;103502.0;;;-0.31;84.96
67430;BME280;54298;52.076;5.264;2023-02-10T01:48:43;103506.0;;;-0.4;84.96
67430;BME280;54298;52.076;5.264;2023-02-10T01:52:03;103506.0;;;-0.48;85.11
67430;BME280;54298;52.076;5.264;2023-02-10T01:53:43;103507.0;;;-0.5;85.06
67430;BME280;54298;52.076;5.264;2023-02-10T01:55:23;103508.99999999999;;;-0.52;84.93
67430;BME280;54298;52.076;5.264;2023-02-10T01:57:01;103506.0;;;-0.45;84.82
67430;BME280;54298;52.076;5.264;2023-02-10T02:00:15;103503.0;;;-0.46;84.84
67430;BME280;54298;52.076;5.264;2023-02-10T02:01:51;103505.0;;;-0.39;84.44
67430;BME280;54298;52.076;5.264;2023-02-10T02:03:27;103504.0;;;-0.45;84.34
67430;BME280;54298;52.076;5.264;2023-02-10T02:06:43;103501.0;;;-0.43;84.21
67430;BME280;54298;52.076;5.264;2023-02-10T02:08:22;103508.0;;;-0.5;84.14
67430;BME280;54298;52.076;5.264;2023-02-10T02:10:03;103511.99999999999;;;-0.46;84.05
67430;BME280;54298;52.076;5.264;2023-02-10T02:11:47;103503.0;;;-0.44;83.65
67430;BME280;54298;52.076;5.264;2023-02-10T02:15:27;103514.00000000001;;;-0.44;83.54
67430;BME280;54298;52.076;5.264;2023-02-10T02:17:15;103515.00000000001;;;-0.3;83.26
67430;BME280;54298;52.076;5.264;2023-02-10T02:19:00;103517.0;;;-0.28;82.97
67430;BME280;54298;52.076;5.264;2023-02-10T02:21:07;103514.00000000001;;;-0.26;82.88
67430;BME280;54298;52.076;5.264;2023-02-10T02:24:41;103513.00000000001;;;-0.28;82.94
67430;BME280;54298;52.076;5.264;2023-02-10T02:27:35;103508.99999999999;;;-0.43;83.24
67430;BME280;54298;52.076;5.264;2023-02-10T02:30:05;103513.00000000001;;;-0.64;83.7
67430;BME280;54298;52.076;5.264;2023-02-10T02:31:55;103508.0;;;-0.27;83.04
67430;BME280;54298;52.076;5.264;2023-02-10T02:33:36;103507.0;;;-0.43;82.91
67430;BME280;54298;52.076;5.264;2023-02-10T02:35:20;103506.0;;;-0.28;82.42
67430;BME280;54298;52.076;5.264;2023-02-10T02:37:03;103509.99999999999;;;-0.44;82.44
67430;BME280;54298;52.076;5.264;2023-02-10T02:40:19;103513.00000000001;;;-0.4;82.24
67430;BME280;54298;52.076;5.264;2023-02-10T02:42:13;103518.0;;;-0.44;82.3
67430;BME280;54298;52.076;5.264;2023-02-10T02:43:50;103517.0;;;-0.55;82.62
67430;BME280;54298;52.076;5.264;2023-02-10T02:45:32;103516.00000000001;;;-0.67;83.04
67430;BME280;54298;52.076;5.264;2023-02-10T02:47:22;103519.0;;;-0.74;83.31
67430;BME280;54298;52.076;5.264;2023-02-10T02:50:53;103520.0;;;-0.76;83.4
67430;BME280;54298;52.076;5.264;2023-02-10T02:52:48;103519.0;;;-0.78;83.45
67430;BME280;54298;52.076;5.264;2023-02-10T02:54:33;103527.0;;;-0.8;83.47
67430;BME280;54298;52.076;5.264;2023-02-10T02:56:23;103527.0;;;-0.92;83.99
67430;BME280;54298;52.076;5.264;2023-02-10T02:58:11;103529.0;;;-0.95;84.16
67430;BME280;54298;52.076;5.264;2023-02-10T02:59:54;103527.0;;;-1.03;84.43
67430;BME280;54298;52.076;5.264;2023-02-10T03:03:18;103522.0;;;-1.0;84.38
67430;BME280;54298;52.076;5.264;2023-02-10T03:04:55;103523.0;;;-1.12;85.04
67430;BME280;54298;52.076;5.264;2023-02-10T03:06:32;103522.0;;;-1.14;85.1
67430;BME280;54298;52.076;5.264;2023-02-10T03:08:08;103517.0;;;-1.19;85.39
67430;BME280;54298;52.076;5.264;2023-02-10T03:11:20;103514.00000000001;;;-1.09;84.76
67430;BME280;54298;52.076;5.264;2023-02-10T03:12:58;103522.0;;;-0.93;84.49
67430;BME280;54298;52.076;5.264;2023-02-10T03:14:34;103516.00000000001;;;-0.91;84.37
67430;BME280;54298;52.076;5.264;2023-02-10T03:17:46;103523.0;;;-1.02;84.64
67430;BME280;54298;52.076;5.264;2023-02-10T03:19:22;103517.0;;;-1.03;84.75
67430;BME280;54298;52.076;5.264;2023-02-10T03:20:58;103524.0;;;-0.99;84.68
67430;BME280;54298;52.076;5.264;2023-02-10T03:24:11;103516.00000000001;;;-1.01;84.72
67430;BME280;54298;52.076;5.264;2023-02-10T03:25:47;103517.0;;;-0.92;84.59
67430;BME280;54298;52.076;5.264;2023-02-10T03:27:23;103520.0;;;-0.88;84.25
67430;BME280;54298;52.076;5.264;2023-02-10T03:29:00;103523.0;;;-0.93;84.03
67430;BME280;54298;52.076;5.264;2023-02-10T03:32:15;103523.0;;;-0.96;84.07
67430;BME280;54298;52.076;5.264;2023-02-10T03:33:51;103518.0;;;-1.11;84.53
67430;BME280;54298;52.076;5.264;2023-02-10T03:35:27;103523.0;;;-1.13;84.66
67430;BME280;54298;52.076;5.264;2023-02-10T03:38:39;103524.0;;;-1.1;84.59
67430;BME280;54298;52.076;5.264;2023-02-10T03:40:16;103525.0;;;-0.93;84.15
67430;BME280;54298;52.076;5.264;2023-02-10T03:41:53;103529.0;;;-0.98;84.05
67430;BME280;54298;52.076;5.264;2023-02-10T03:45:06;103528.0;;;-0.99;84.01
67430;BME280;54298;52.076;5.264;2023-02-10T03:46:43;103532.0;;;-0.9;84.2
67430;BME280;54298;52.076;5.264;2023-02-10T03:48:19;103526.0;;;-1.01;84.24
67430;BME280;54298;52.076;5.264;2023-02-10T03:49:55;103522.0;;;-1.01;84.28
67430;BME280;54298;52.076;5.264;2023-02-10T03:53:08;103529.0;;;-0.93;84.02
67430;BME280;54298;52.076;5.264;2023-02-10T03:54:44;103530.0;;;-1.04;84.13
67430;BME280;54298;52.076;5.264;2023-02-10T03:56:20;103527.0;;;-1.04;84.13
67430;BME280;54298;52.076;5.264;2023-02-10T03:59:33;103532.0;;;-1.06;84.14
67430;BME280;54298;52.076;5.264;2023-02-10T04:01:11;103523.0;;;-0.91;83.81
67430;BME280;54298;52.076;5.264;2023-02-10T04:02:49;103533.99999999999;;;-1.02;84.02
67430;BME280;54298;52.076;5.264;2023-02-10T04:06:01;103530.0;;;-1.02;83.92
67430;BME280;54298;52.076;5.264;2023-02-10T04:07:37;103527.0;;;-1.01;83.7
67430;BME280;54298;52.076;5.264;2023-02-10T04:09:14;103528.0;;;-1.11;83.75
67430;BME280;54298;52.076;5.264;2023-02-10T04:14:03;103528.0;;;-1.22;84.39
67430;BME280;54298;52.076;5.264;2023-02-10T04:15:39;103528.0;;;-1.22;84.34
67430;BME280;54298;52.076;5.264;2023-02-10T04:17:15;103533.0;;;-1.21;84.28
67430;BME280;54298;52.076;5.264;2023-02-10T04:20:28;103534.99999999999;;;-1.12;84.26
67430;BME280;54298;52.076;5.264;2023-02-10T04:22:04;103532.0;;;-1.17;84.12
67430;BME280;54298;52.076;5.264;2023-02-10T04:23:40;103538.00000000001;;;-1.02;83.91
67430;BME280;54298;52.076;5.264;2023-02-10T04:26:52;103546.0;;;-1.23;83.93
67430;BME280;54298;52.076;5.264;2023-02-10T04:28:29;103544.0;;;-1.18;83.39
67430;BME280;54298;52.076;5.264;2023-02-10T04:30:06;103542.0;;;-1.06;83.06
67430;BME280;54298;52.076;5.264;2023-02-10T04:31:43;103542.0;;;-1.13;83.28
67430;BME280;54298;52.076;5.264;2023-02-10T04:34:57;103545.0;;;-1.18;83.57
67430;BME280;54298;52.076;5.264;2023-02-10T04:36:33;103545.0;;;-1.2;83.81
67430;BME280;54298;52.076;5.264;2023-02-10T04:38:09;103549.0;;;-1.2;83.63
67430;BME280;54298;52.076;5.264;2023-02-10T04:41:23;103556.0;;;-1.15;83.47
67430;BME280;54298;52.076;5.264;2023-02-10T04:42:59;103551.0;;;-1.13;83.46
67430;BME280;54298;52.076;5.264;2023-02-10T04:44:35;103550.0;;;-1.11;83.35
67430;BME280;54298;52.076;5.264;2023-02-10T04:47:49;103550.0;;;-1.14;83.3
67430;BME280;54298;52.076;5.264;2023-02-10T04:49:26;103551.0;;;-1.08;83.01
67430;BME280;54298;52.076;5.264;2023-02-10T04:51:06;103540.00000000001;;;-1.21;83.18
67430;BME280;54298;52.076;5.264;2023-02-10T04:55:56;103542.0;;;-1.21;83.64
67430;BME280;54298;52.076;5.264;2023-02-10T04:57:32;103538.00000000001;;;-1.19;83.73
67430;BME280;54298;52.076;5.264;2023-02-10T04:59:08;103529.0;;;-1.17;83.94
67430;BME280;54298;52.076;5.264;2023-02-10T05:02:21;103528.0;;;-1.09;83.92
67430;BME280;54298;52.076;5.264;2023-02-10T05:03:57;103529.0;;;-1.14;84.09
67430;BME280;54298;52.076;5.264;2023-02-10T05:05:33;103527.0;;;-1.12;84.21
67430;BME280;54298;52.076;5.264;2023-02-10T05:08:49;103526.0;;;-1.11;84.55
67430;BME280;54298;52.076;5.264;2023-02-10T05:10:25;103523.0;;;-1.06;84.71
67430;BME280;54298;52.076;5.264;2023-02-10T05:12:04;103529.0;;;-1.15;84.71
67430;BME280;54298;52.076;5.264;2023-02-10T05:13:40;103525.0;;;-1.12;84.42
67430;BME280;54298;52.076;5.264;2023-02-10T05:16:54;103524.0;;;-1.05;84.13
67430;BME280;54298;52.076;5.264;2023-02-10T05:18:31;103533.0;;;-1.01;83.31
67430;BME280;54298;52.076;5.264;2023-02-10T05:20:08;103539.00000000001;;;-1.15;83.57
67430;BME280;54298;52.076;5.264;2023-02-10T05:23:22;103538.00000000001;;;-1.04;83.26
67430;BME280;54298;52.076;5.264;2023-02-10T05:24:58;103539.00000000001;;;-1.13;83.43
67430;BME280;54298;52.076;5.264;2023-02-10T05:26:34;103540.00000000001;;;-1.19;83.54
67430;BME280;54298;52.076;5.264;2023-02-10T05:29:46;103538.00000000001;;;-1.34;84.21
67430;BME280;54298;52.076;5.264;2023-02-10T05:31:22;103531.0;;;-1.39;84.53
67430;BME280;54298;52.076;5.264;2023-02-10T05:32:59;103532.0;;;-1.37;84.58
67430;BME280;54298;52.076;5.264;2023-02-10T05:34:35;103539.00000000001;;;-1.29;83.81
67430;BME280;54298;52.076;5.264;2023-02-10T05:37:47;103542.0;;;-1.2;83.63
67430;BME280;54298;52.076;5.264;2023-02-10T05:39:24;103547.0;;;-1.2;83.41
67430;BME280;54298;52.076;5.264;2023-02-10T05:41:01;103548.0;;;-1.24;83.31
67430;BME280;54298;52.076;5.264;2023-02-10T05:44:13;103547.0;;;-1.18;83.54
67430;BME280;54298;52.076;5.264;2023-02-10T05:45:49;103550.0;;;-1.14;83.4
67430;BME280;54298;52.076;5.264;2023-02-10T05:47:25;103545.0;;;-1.25;83.55
67430;BME280;54298;52.076;5.264;2023-02-10T05:50:40;103536.99999999999;;;-1.17;83.39
67430;BME280;54298;52.076;5.264;2023-02-10T05:52:16;103529.0;;;-1.37;84.05
67430;BME280;54298;52.076;5.264;2023-02-10T05:53:53;103532.0;;;-1.2;84.23
67430;BME280;54298;52.076;5.264;2023-02-10T05:55:30;103525.0;;;-1.05;84.3
67430;BME280;54298;52.076;5.264;2023-02-10T05:58:43;103527.0;;;-0.94;84.35
67430;BME280;54298;52.076;5.264;2023-02-10T06:00:20;103529.0;;;-0.78;84.83
67430;BME280;54298;52.076;5.264;2023-02-10T06:01:56;103536.99999999999;;;-0.57;85.3
67430;BME280;54298;52.076;5.264;2023-02-10T06:05:08;103534.99999999999;;;-0.44;85.54
67430;BME280;54298;52.076;5.264;2023-02-10T06:06:46;103533.0;;;-0.36;86.09
67430;BME280;54298;52.076;5.264;2023-02-10T06:08:23;103528.0;;;-0.18;85.88
67430;BME280;54298;52.076;5.264;2023-02-10T06:11:36;103529.0;;;-0.13;86.68
67430;BME280;54298;52.076;5.264;2023-02-10T06:13:12;103532.0;;;-0.05;86.59
67430;BME280;54298;52.076;5.264;2023-02-10T06:14:48;103530.0;;;0.04;86.62
67430;BME280;54298;52.076;5.264;2023-02-10T06:16:25;103532.0;;;0.04;87.09
67430;BME280;54298;52.076;5.264;2023-02-10T06:19:38;103544.0;;;0.15;87.2
67430;BME280;54298;52.076;5.264;2023-02-10T06:21:16;103543.0;;;0.18;87.52
67430;BME280;54298;52.076;5.264;2023-02-10T06:22:52;103554.0;;;0.25;87.62
67430;BME280;54298;52.076;5.264;2023-02-10T06:26:04;103555.0;;;0.25;87.44
67430;BME280;54298;52.076;5.264;2023-02-10T06:27:40;103549.0;;;0.34;87.72
67430;BME280;54298;52.076;5.264;2023-02-10T06:29:17;103542.0;;;0.46;87.54
67430;BME280;54298;52.076;5.264;2023-02-10T06:32:30;103544.0;;;0.52;87.25
67430;BME280;54298;52.076;5.264;2023-02-10T06:34:08;103553.0;;;0.54;87.4
67430;BME280;54298;52.076;5.264;2023-02-10T06:35:45;103561.99999999999;;;0.58;87.45
67430;BME280;54298;52.076;5.264;2023-02-10T06:37:23;103558.0;;;0.6;86.72
67430;BME280;54298;52.076;5.264;2023-02-10T06:40:36;103556.0;;;0.58;87.16
67430;BME280;54298;52.076;5.264;2023-02-10T06:42:12;103555.0;;;0.58;87.64
67430;BME280;54298;52.076;5.264;2023-02-10T06:43:48;103553.0;;;0.61;87.8
67430;BME280;54298;52.076;5.264;2023-02-10T06:47:00;103557.0;;;0.71;87.79
67430;BME280;54298;52.076;5.264;2023-02-10T06:48:37;103553.0;;;0.79;87.57
67430;BME280;54298;52.076;5.264;2023-02-10T06:50:13;103550.0;;;0.84;87.44
67430;BME280;54298;52.076;5.264;2023-02-10T06:53:26;103555.0;;;0.9;87.44
67430;BME280;54298;52.076;5.264;2023-02-10T06:55:03;103558.0;;;0.97;87.31
67430;BME280;54298;52.076;5.264;2023-02-10T06:56:39;103558.99999999999;;;0.96;87.09
67430;BME280;54298;52.076;5.264;2023-02-10T06:58:16;103559.99999999999;;;1.08;87.01
67430;BME280;54298;52.076;5.264;2023-02-10T07:01:29;103567.0;;;1.07;86.87
67430;BME280;54298;52.076;5.264;2023-02-10T07:03:05;103568.0;;;0.99;86.94
67430;BME280;54298;52.076;5.264;2023-02-10T07:04:41;103569.0;;;1.0;87.11
67430;BME280;54298;52.076;5.264;2023-02-10T07:07:55;103567.0;;;1.14;86.63
67430;BME280;54298;52.076;5.264;2023-02-10T07:09:32;103567.0;;;1.08;86.67
67430;BME280;54298;52.076;5.264;2023-02-10T07:11:08;103572.0;;;1.08;86.44
67430;BME280;54298;52.076;5.264;2023-02-10T07:14:20;103572.0;;;1.22;86.21
67430;BME280;54298;52.076;5.264;2023-02-10T07:15:56;103574.0;;;1.23;86.02
67430;BME280;54298;52.076;5.264;2023-02-10T07:17:33;103574.0;;;1.17;85.86
67430;BME280;54298;52.076;5.264;2023-02-10T07:19:09;103573.0;;;1.12;85.91
67430;BME280;54298;52.076;5.264;2023-02-10T07:22:21;103576.0;;;1.22;85.71
67430;BME280;54298;52.076;5.264;2023-02-10T07:23:57;103571.0;;;1.16;85.56
67430;BME280;54298;52.076;5.264;2023-02-10T07:25:33;103565.00000000001;;;1.12;86.0
67430;BME280;54298;52.076;5.264;2023-02-10T07:28:46;103567.0;;;1.07;86.18
67430;BME280;54298;52.076;5.264;2023-02-10T07:30:23;103574.0;;;1.03;86.47
67430;BME280;54298;52.076;5.264;2023-02-10T07:32:00;103575.0;;;1.17;86.12
67430;BME280;54298;52.076;5.264;2023-02-10T07:35:14;103578.0;;;1.21;85.9
67430;BME280;54298;52.076;5.264;2023-02-10T07:36:53;103581.0;;;1.25;85.81
67430;BME280;54298;52.076;5.264;2023-02-10T07:38:30;103594.0;;;1.2;85.78
67430;BME280;54298;52.076;5.264;2023-02-10T07:40:09;103600.0;;;1.14;86.0
67430;BME280;54298;52.076;5.264;2023-02-10T07:43:21;103598.0;;;1.22;85.98
67430;BME280;54298;52.076;5.264;2023-02-10T07:44:58;103601.0;;;1.28;85.73
67430;BME280;54298;52.076;5.264;2023-02-10T07:46:34;103609.99999999999;;;1.25;85.79
67430;BME280;54298;52.076;5.264;2023-02-10T07:49:47;103608.99999999999;;;1.27;85.85
67430;BME280;54298;52.076;5.264;2023-02-10T07:51:24;103609.99999999999;;;1.3;85.79
67430;BME280;54298;52.076;5.264;2023-02-10T07:53:00;103602.0;;;1.36;85.72
67430;BME280;54298;52.076;5.264;2023-02-10T07:56:13;103608.99999999999;;;1.47;85.45
67430;BME280;54298;52.076;5.264;2023-02-10T07:57:51;103619.0;;;1.5;85.12
67430;BME280;54298;52.076;5.264;2023-02-10T07:59:28;103626.0;;;1.46;85.04
67430;BME280;54298;52.076;5.264;2023-02-10T08:01:06;103623.0;;;1.51;84.99
67430;BME280;54298;52.076;5.264;2023-02-10T08:04:19;103624.0;;;1.42;85.22
67430;BME280;54298;52.076;5.264;2023-02-10T08:05:55;103625.0;;;1.47;84.94
67430;BME280;54298;52.076;5.264;2023-02-10T08:07:31;103614.00000000001;;;1.43;84.59
67430;BME280;54298;52.076;5.264;2023-02-10T08:10:47;103608.99999999999;;;1.39;84.94
67430;BME280;54298;52.076;5.264;2023-02-10T08:12:23;103606.0;;;1.43;84.76
67430;BME280;54298;52.076;5.264;2023-02-10T08:14:00;103619.0;;;1.4;84.77
67430;BME280;54298;52.076;5.264;2023-02-10T08:15:38;103620.0;;;1.47;84.62
67430;BME280;54298;52.076;5.264;2023-02-10T08:18:51;103616.00000000001;;;1.41;84.65
67430;BME280;54298;52.076;5.264;2023-02-10T08:20:27;103614.00000000001;;;1.48;84.39
67430;BME280;54298;52.076;5.264;2023-02-10T08:22:03;103607.0;;;1.37;84.66
67430;BME280;54298;52.076;5.264;2023-02-10T08:25:16;103607.0;;;1.36;84.91
67430;BME280;54298;52.076;5.264;2023-02-10T08:26:52;103602.0;;;1.37;84.96
67430;BME280;54298;52.076;5.264;2023-02-10T08:28:29;103605.0;;;1.42;84.98
67430;BME280;54298;52.076;5.264;2023-02-10T08:31:43;103611.99999999999;;;1.48;85.11
67430;BME280;54298;52.076;5.264;2023-02-10T08:33:19;103608.99999999999;;;1.39;85.22
67430;BME280;54298;52.076;5.264;2023-02-10T08:34:55;103614.00000000001;;;1.56;85.06
67430;BME280;54298;52.076;5.264;2023-02-10T08:36:31;103617.0;;;1.51;85.17
67430;BME280;54298;52.076;5.264;2023-02-10T08:39:45;103606.0;;;1.62;85.23
67430;BME280;54298;52.076;5.264;2023-02-10T08:41:21;103606.0;;;1.64;85.1
67430;BME280;54298;52.076;5.264;2023-02-10T08:42:57;103613.00000000001;;;1.66;85.08
67430;BME280;54298;52.076;5.264;2023-02-10T08:46:11;103618.0;;;1.62;85.24
67430;BME280;54298;52.076;5.264;2023-02-10T08:47:48;103622.0;;;1.67;85.26
67430;BME280;54298;52.076;5.264;2023-02-10T08:49:25;103620.0;;;1.76;84.94
67430;BME280;54298;52.076;5.264;2023-02-10T08:52:43;103617.0;;;1.72;85.08
67430;BME280;54298;52.076;5.264;2023-02-10T08:54:20;103618.0;;;1.8;85.11
67430;BME280;54298;52.076;5.264;2023-02-10T08:55:59;103619.0;;;1.79;85.02
67430;BME280;54298;52.076;5.264;2023-02-10T08:57:38;103623.0;;;1.86;84.99
67430;BME280;54298;52.076;5.264;2023-02-10T09:00:52;103624.0;;;1.89;84.99
67430;BME280;54298;52.076;5.264;2023-02-10T09:02:30;103626.0;;;1.99;85.02
67430;BME280;54298;52.076;5.264;2023-02-10T09:04:07;103622.0;;;2.04;85.0
67430;BME280;54298;52.076;5.264;2023-02-10T09:07:22;103625.0;;;2.08;84.69
67430;BME280;54298;52.076;5.264;2023-02-10T09:09:00;103630.0;;;2.07;84.87
67430;BME280;54298;52.076;5.264;2023-02-10T09:10:38;103631.0;;;2.1;84.75
67430;BME280;54298;52.076;5.264;2023-02-10T09:12:14;103631.0;;;2.11;84.82
67430;BME280;54298;52.076;5.264;2023-02-10T09:15:28;103633.0;;;2.02;85.02
67430;BME280;54298;52.076;5.264;2023-02-10T09:17:04;103634.99999999999;;;2.13;85.07
67430;BME280;54298;52.076;5.264;2023-02-10T09:18:41;103636.99999999999;;;2.13;85.12
67430;BME280;54298;52.076;5.264;2023-02-10T09:21:55;103633.99999999999;;;2.04;85.51
67430;BME280;54298;52.076;5.264;2023-02-10T09:23:32;103628.0;;;2.19;85.37
67430;BME280;54298;52.076;5.264;2023-02-10T09:25:08;103632.0;;;2.16;85.47
67430;BME280;54298;52.076;5.264;2023-02-10T09:26:44;103629.0;;;2.31;85.23
67430;BME280;54298;52.076;5.264;2023-02-10T09:29:59;103634.99999999999;;;2.29;85.36
67430;BME280;54298;52.076;5.264;2023-02-10T09:31:36;103640.00000000001;;;2.41;85.33
67430;BME280;54298;52.076;5.264;2023-02-10T09:33:12;103644.0;;;2.36;85.26
67430;BME280;54298;52.076;5.264;2023-02-10T09:36:24;103639.00000000001;;;2.46;85.22
67430;BME280;54298;52.076;5.264;2023-02-10T09:38:00;103643.0;;;2.44;85.52
67430;BME280;54298;52.076;5.264;2023-02-10T09:39:38;103645.0;;;2.56;85.36
67430;BME280;54298;52.076;5.264;2023-02-10T09:43:23;103642.0;;;2.56;85.11
67430;BME280;54298;52.076;5.264;2023-02-10T09:45:09;103644.0;;;2.69;84.92
67430;BME280;54298;52.076;5.264;2023-02-10T09:46:58;103653.0;;;2.73;84.8
67430;BME280;54298;52.076;5.264;2023-02-10T09:49:06;103657.0;;;2.71;84.8
67430;BME280;54298;52.076;5.264;2023-02-10T09:50:56;103648.0;;;2.82;84.72
67430;BME280;54298;52.076;5.264;2023-02-10T09:52:46;103647.0;;;2.78;84.65
67430;BME280;54298;52.076;5.264;2023-02-10T09:54:31;103653.0;;;2.71;85.01
67430;BME280;54298;52.076;5.264;2023-02-10T09:56:13;103651.0;;;2.72;85.09
67430;BME280;54298;52.076;5.264;2023-02-10T09:59:36;103651.0;;;2.79;85.04
67430;BME280;54298;52.076;5.264;2023-02-10T10:01:18;103643.0;;;2.83;84.84
67430;BME280;54298;52.076;5.264;2023-02-10T10:02:57;103640.00000000001;;;2.9;84.75
67430;BME280;54298;52.076;5.264;2023-02-10T10:04:37;103646.0;;;2.94;84.77
67430;BME280;54298;52.076;5.264;2023-02-10T10:07:59;103642.0;;;2.85;85.12
67430;BME280;54298;52.076;5.264;2023-02-10T10:09:41;103639.00000000001;;;2.93;85.08
67430;BME280;54298;52.076;5.264;2023-02-10T10:11:24;103644.0;;;2.92;85.16
67430;BME280;54298;52.076;5.264;2023-02-10T10:13:02;103644.0;;;2.98;85.34
67430;BME280;54298;52.076;5.264;2023-02-10T10:16:21;103645.0;;;3.14;85.12
67430;BME280;54298;52.076;5.264;2023-02-10T10:18:10;103644.0;;;3.13;85.11
67430;BME280;54298;52.076;5.264;2023-02-10T10:20:02;103642.0;;;3.18;85.02
67430;BME280;54298;52.076;5.264;2023-02-10T10:21:51;103646.0;;;3.27;84.92
67430;BME280;54298;52.076;5.264;2023-02-10T10:23:43;103642.0;;;3.33;85.16
67430;BME280;54298;52.076;5.264;2023-02-10T10:25:36;103632.0;;;3.37;84.96
67430;BME280;54298;52.076;5.264;2023-02-10T10:28:21;103630.0;;;3.49;84.06
67430;BME280;54298;52.076;5.264;2023-02-10T10:30:09;103634.99999999999;;;3.44;84.08
67430;BME280;54298;52.076;5.264;2023-02-10T10:31:52;103630.0;;;3.48;83.64
67430;BME280;54298;52.076;5.264;2023-02-10T10:35:18;103633.0;;;3.38;84.14
67430;BME280;54298;52.076;5.264;2023-02-10T10:36:58;103632.0;;;3.58;83.48
67430;BME280;54298;52.076;5.264;2023-02-10T10:38:42;103626.0;;;3.54;83.77
67430;BME280;54298;52.076;5.264;2023-02-10T10:40:24;103617.0;;;3.65;83.55
67430;BME280;54298;52.076;5.264;2023-02-10T10:42:16;103617.0;;;3.72;83.62
67430;BME280;54298;52.076;5.264;2023-02-10T10:45:36;103615.00000000001;;;3.81;83.42
67430;BME280;54298;52.076;5.264;2023-02-10T10:47:20;103614.00000000001;;;3.88;83.67
67430;BME280;54298;52.076;5.264;2023-02-10T10:49:01;103618.0;;;4.0;83.63
67430;BME280;54298;52.076;5.264;2023-02-10T10:50:39;103622.0;;;3.96;83.53
67430;BME280;54298;52.076;5.264;2023-02-10T10:54:03;103624.0;;;4.03;83.51
67430;BME280;54298;52.076;5.264;2023-02-10T10:55:43;103624.0;;;4.12;83.39
67430;BME280;54298;52.076;5.264;2023-02-10T10:57:25;103626.0;;;4.1;83.29
67430;BME280;54298;52.076;5.264;2023-02-10T10:59:11;103620.0;;;4.24;82.95